Wetterdaten: aktuell Donnerstag, 21.03.2019 08:55
Datum Zeit Temp. A. Feuchte A. Luftdruck Regen Wind Taupunkt Windchill Windben
21.03.2019 08:55 3,4 C 61 % 1036,8 hPa 0,0 l/m 0,5 km/h (0 Bft) -3,4 C 3,4 C 1,6 km/h (1 Bft)
21.03.2019 08:50 3,3 C 62 % 1036,9 hPa 0,0 l/m 0,7 km/h (0 Bft) -3,3 C 3,3 C 3,2 km/h (1 Bft)
21.03.2019 08:45 3,1 C 62 % 1036,8 hPa 0,0 l/m 0,2 km/h (0 Bft) -3,5 C 3,1 C 1,6 km/h (1 Bft)
21.03.2019 08:40 3,1 C 62 % 1036,8 hPa 0,0 l/m 1,4 km/h (1 Bft) -3,5 C 3,1 C 3,2 km/h (1 Bft)
21.03.2019 08:35 3,0 C 63 % 1036,8 hPa 0,0 l/m 0,1 km/h (0 Bft) -3,3 C 3,0 C 3,2 km/h (1 Bft)
21.03.2019 08:30 2,7 C 64 % 1036,8 hPa 0,0 l/m 0,0 km/h (0 Bft) -3,4 C 2,7 C 0,0 km/h (0 Bft)
21.03.2019 08:25 2,1 C 66 % 1036,9 hPa 0,0 l/m 0,0 km/h (0 Bft) -3,6 C 2,1 C 0,0 km/h (0 Bft)
21.03.2019 08:20 1,6 C 68 % 1036,8 hPa 0,0 l/m 0,0 km/h (0 Bft) -3,7 C 1,6 C 0,0 km/h (0 Bft)
21.03.2019 08:15 1,2 C 70 % 1036,8 hPa 0,0 l/m 0,0 km/h (0 Bft) -3,7 C 1,2 C 0,0 km/h (0 Bft)
21.03.2019 08:10 0,8 C 71 % 1036,7 hPa 0,0 l/m 0,0 km/h (0 Bft) -3,8 C 0,8 C 0,0 km/h (0 Bft)
21.03.2019 08:05 0,3 C 73 % 1036,8 hPa 0,0 l/m 0,0 km/h (0 Bft) -4,0 C 0,3 C 0,0 km/h (0 Bft)
21.03.2019 08:00 -0,1 C 75 % 1036,8 hPa 0,0 l/m 0,0 km/h (0 Bft) -4,0 C -0,1 C 0,0 km/h (0 Bft)
21.03.2019 07:55 -0,4 C 76 % 1036,8 hPa 0,0 l/m 0,0 km/h (0 Bft) -4,1 C -0,4 C 0,0 km/h (0 Bft)
21.03.2019 07:50 -0,7 C 79 % 1036,8 hPa 0,0 l/m 0,0 km/h (0 Bft) -3,9 C -0,7 C 0,0 km/h (0 Bft)
21.03.2019 07:45 -0,9 C 80 % 1036,7 hPa 0,0 l/m 0,0 km/h (0 Bft) -3,9 C -0,9 C 0,0 km/h (0 Bft)
21.03.2019 07:40 -1,1 C 80 % 1036,7 hPa 0,0 l/m 0,0 km/h (0 Bft) -4,1 C -1,1 C 0,0 km/h (0 Bft)
21.03.2019 07:35 -1,2 C 81 % 1036,7 hPa 0,0 l/m 0,0 km/h (0 Bft) -4,0 C -1,2 C 0,0 km/h (0 Bft)
21.03.2019 07:30 -1,4 C 81 % 1036,7 hPa 0,0 l/m 0,0 km/h (0 Bft) -4,2 C -1,4 C 0,0 km/h (0 Bft)
21.03.2019 07:25 -1,7 C 81 % 1036,7 hPa 0,0 l/m 0,0 km/h (0 Bft) -4,5 C -1,7 C 0,0 km/h (0 Bft)
21.03.2019 07:20 -1,8 C 81 % 1036,6 hPa 0,0 l/m 0,0 km/h (0 Bft) -4,6 C -1,8 C 0,0 km/h (0 Bft)
21.03.2019 07:15 -1,9 C 81 % 1036,6 hPa 0,0 l/m 0,0 km/h (0 Bft) -4,7 C -1,9 C 0,0 km/h (0 Bft)
_ Min-Zeit 06:40 08:55 04:15 - 00:25 06:40 06:40 00:25
Minimum _ -2,7 C 61 % 1035,9 hPa - 0,0 km/h (0 Bft) -6,3 C -2,7 C 0,0 km/h (0 Bft)
_ Max-Zeit 08:55 06:55 08:25 00:00 00:00 08:50 08:55 00:00
Maximum _ 3,4 C 81 % 1036,9 hPa 0,0 l/m 2,2 km/h
W (1 Bft)
-3,3 C 3,4 C 4,8 km/h
W (1 Bft)
Durchschnitt _ -1,2 C 73 % 1036,5 hPa #0,0 l/m 0,1 km/h (0 Bft) -5,4 C -1,2 C 0,4 km/h (0 Bft)